sensor_id;sensor_type;location;lat;lon;timestamp;pressure;altitude;pressure_sealevel;temperature;humidity
4576;BME280;2300;51.874;8.430;2023-08-24T00:02:19;100989.06;;;17.03;100.00
4576;BME280;2300;51.874;8.430;2023-08-24T00:04:45;100996.88;;;17.06;100.00
4576;BME280;2300;51.874;8.430;2023-08-24T00:07:12;100986.03;;;17.05;100.00
4576;BME280;2300;51.874;8.430;2023-08-24T00:09:38;100978.84;;;17.04;100.00
4576;BME280;2300;51.874;8.430;2023-08-24T00:12:06;100983.00;;;17.06;100.00
4576;BME280;2300;51.874;8.430;2023-08-24T00:14:34;100983.97;;;16.90;100.00
4576;BME280;2300;51.874;8.430;2023-08-24T00:17:01;100982.38;;;16.94;100.00
4576;BME280;2300;51.874;8.430;2023-08-24T00:19:27;100987.34;;;16.92;100.00
4576;BME280;2300;51.874;8.430;2023-08-24T00:21:54;100980.66;;;16.88;100.00
4576;BME280;2300;51.874;8.430;2023-08-24T00:24:19;100983.13;;;16.90;100.00
4576;BME280;2300;51.874;8.430;2023-08-24T00:26:46;100982.84;;;16.86;100.00
4576;BME280;2300;51.874;8.430;2023-08-24T00:29:12;100977.56;;;16.85;100.00
4576;BME280;2300;51.874;8.430;2023-08-24T00:31:40;100978.97;;;16.87;100.00
4576;BME280;2300;51.874;8.430;2023-08-24T00:34:07;100979.50;;;16.84;100.00
4576;BME280;2300;51.874;8.430;2023-08-24T00:36:34;100976.09;;;16.72;100.00
4576;BME280;2300;51.874;8.430;2023-08-24T00:39:01;100966.06;;;16.66;100.00
4576;BME280;2300;51.874;8.430;2023-08-24T00:41:27;100964.13;;;16.66;100.00
4576;BME280;2300;51.874;8.430;2023-08-24T00:43:54;100969.66;;;16.61;100.00
4576;BME280;2300;51.874;8.430;2023-08-24T00:46:21;100969.09;;;16.64;100.00
4576;BME280;2300;51.874;8.430;2023-08-24T00:48:50;100966.88;;;16.61;100.00
4576;BME280;2300;51.874;8.430;2023-08-24T00:51:17;100964.03;;;16.51;100.00
4576;BME280;2300;51.874;8.430;2023-08-24T00:53:44;100959.84;;;16.49;100.00
4576;BME280;2300;51.874;8.430;2023-08-24T00:56:11;100968.19;;;16.54;100.00
4576;BME280;2300;51.874;8.430;2023-08-24T00:58:38;100961.00;;;16.53;100.00
4576;BME280;2300;51.874;8.430;2023-08-24T01:01:05;100968.72;;;16.51;100.00
4576;BME280;2300;51.874;8.430;2023-08-24T01:03:31;100965.38;;;16.49;100.00
4576;BME280;2300;51.874;8.430;2023-08-24T01:05:59;100967.06;;;16.50;100.00
4576;BME280;2300;51.874;8.430;2023-08-24T01:08:26;100959.84;;;16.49;100.00
4576;BME280;2300;51.874;8.430;2023-08-24T01:11:02;100963.72;;;16.48;100.00
4576;BME280;2300;51.874;8.430;2023-08-24T01:13:38;100960.38;;;16.46;100.00
4576;BME280;2300;51.874;8.430;2023-08-24T01:16:11;100952.31;;;16.44;100.00
4576;BME280;2300;51.874;8.430;2023-08-24T01:18:40;100954.22;;;16.39;100.00
4576;BME280;2300;51.874;8.430;2023-08-24T01:21:10;100960.56;;;16.34;100.00
4576;BME280;2300;51.874;8.430;2023-08-24T01:23:45;100953.06;;;16.34;100.00
4576;BME280;2300;51.874;8.430;2023-08-24T01:26:18;100957.53;;;16.36;100.00
4576;BME280;2300;51.874;8.430;2023-08-24T01:28:45;100949.72;;;16.32;100.00
4576;BME280;2300;51.874;8.430;2023-08-24T01:31:13;100912.69;;;16.12;100.00
4576;BME280;2300;51.874;8.430;2023-08-24T01:33:40;100946.69;;;16.34;100.00
4576;BME280;2300;51.874;8.430;2023-08-24T01:36:08;100944.19;;;16.32;100.00
4576;BME280;2300;51.874;8.430;2023-08-24T01:38:35;100936.16;;;16.31;100.00
4576;BME280;2300;51.874;8.430;2023-08-24T01:41:09;100928.09;;;16.29;100.00
4576;BME280;2300;51.874;8.430;2023-08-24T01:43:40;100926.13;;;16.25;100.00
4576;BME280;2300;51.874;8.430;2023-08-24T01:46:07;100925.28;;;16.24;100.00
4576;BME280;2300;51.874;8.430;2023-08-24T01:48:34;100919.13;;;16.17;100.00
4576;BME280;2300;51.874;8.430;2023-08-24T01:51:01;100915.78;;;16.15;100.00
4576;BME280;2300;51.874;8.430;2023-08-24T01:53:31;100919.13;;;16.17;100.00
4576;BME280;2300;51.874;8.430;2023-08-24T01:55:58;100914.66;;;16.11;100.00
4576;BME280;2300;51.874;8.430;2023-08-24T01:58:24;100920.44;;;16.10;100.00
4576;BME280;2300;51.874;8.430;2023-08-24T02:00:52;100927.19;;;16.19;100.00
4576;BME280;2300;51.874;8.430;2023-08-24T02:03:18;100915.78;;;16.15;100.00
4576;BME280;2300;51.874;8.430;2023-08-24T02:05:45;100921.88;;;16.17;100.00
4576;BME280;2300;51.874;8.430;2023-08-24T02:08:12;100921.34;;;16.15;100.00
4576;BME280;2300;51.874;8.430;2023-08-24T02:10:38;100919.66;;;16.14;100.00
4576;BME280;2300;51.874;8.430;2023-08-24T02:13:05;100913.28;;;16.14;100.00
4576;BME280;2300;51.874;8.430;2023-08-24T02:15:31;100911.59;;;16.13;100.00
4576;BME280;2300;51.874;8.430;2023-08-24T02:17:59;100907.91;;;16.07;100.00
4576;BME280;2300;51.874;8.430;2023-08-24T02:20:26;100913.47;;;16.07;100.00
4576;BME280;2300;51.874;8.430;2023-08-24T02:22:52;100915.69;;;16.05;100.00
4576;BME280;2300;51.874;8.430;2023-08-24T02:25:19;100922.00;;;16.01;100.00
4576;BME280;2300;51.874;8.430;2023-08-24T02:27:45;100912.53;;;15.97;100.00
4576;BME280;2300;51.874;8.430;2023-08-24T02:30:13;100912.47;;;15.91;100.00
4576;BME280;2300;51.874;8.430;2023-08-24T02:32:40;100906.09;;;15.91;100.00
4576;BME280;2300;51.874;8.430;2023-08-24T02:35:08;100911.13;;;15.94;100.00
4576;BME280;2300;51.874;8.430;2023-08-24T02:37:35;100904.47;;;15.90;100.00
4576;BME280;2300;51.874;8.430;2023-08-24T02:40:01;100905.50;;;15.84;100.00
4576;BME280;2300;51.874;8.430;2023-08-24T02:42:30;100901.59;;;15.80;100.00
4576;BME280;2300;51.874;8.430;2023-08-24T02:44:57;100904.09;;;15.81;100.00
4576;BME280;2300;51.874;8.430;2023-08-24T02:47:23;100896.94;;;15.85;100.00
4576;BME280;2300;51.874;8.430;2023-08-24T02:49:50;100886.88;;;15.74;100.00
4576;BME280;2300;51.874;8.430;2023-08-24T02:52:18;100889.88;;;15.73;100.00
4576;BME280;2300;51.874;8.430;2023-08-24T02:54:44;100900.13;;;15.72;100.00
4576;BME280;2300;51.874;8.430;2023-08-24T02:57:11;100891.56;;;15.74;100.00
4576;BME280;2300;51.874;8.430;2023-08-24T02:59:37;100895.44;;;15.73;100.00
4576;BME280;2300;51.874;8.430;2023-08-24T03:02:04;100891.56;;;15.74;100.00
4576;BME280;2300;51.874;8.430;2023-08-24T03:04:31;100897.09;;;15.74;100.00
4576;BME280;2300;51.874;8.430;2023-08-24T03:06:59;100884.34;;;15.73;100.00
4576;BME280;2300;51.874;8.430;2023-08-24T03:09:27;100891.81;;;15.72;100.00
4576;BME280;2300;51.874;8.430;2023-08-24T03:11:53;100882.13;;;15.70;100.00
4576;BME280;2300;51.874;8.430;2023-08-24T03:14:20;100884.84;;;15.65;100.00
4576;BME280;2300;51.874;8.430;2023-08-24T03:16:46;100877.56;;;15.59;100.00
4576;BME280;2300;51.874;8.430;2023-08-24T03:19:13;100889.78;;;15.63;100.00
4576;BME280;2300;51.874;8.430;2023-08-24T03:21:40;100891.97;;;15.61;100.00
4576;BME280;2300;51.874;8.430;2023-08-24T03:24:06;100896.34;;;15.57;100.00
4576;BME280;2300;51.874;8.430;2023-08-24T03:26:35;100906.94;;;15.60;100.00
4576;BME280;2300;51.874;8.430;2023-08-24T03:29:02;100913.03;;;15.62;100.00
4576;BME280;2300;51.874;8.430;2023-08-24T03:31:29;100905.19;;;15.54;100.00
4576;BME280;2300;51.874;8.430;2023-08-24T03:33:55;100909.09;;;15.58;100.00
4576;BME280;2300;51.874;8.430;2023-08-24T03:36:22;100896.34;;;15.57;100.00
4576;BME280;2300;51.874;8.430;2023-08-24T03:38:48;100900.69;;;15.47;100.00
4576;BME280;2300;51.874;8.430;2023-08-24T03:41:15;100902.63;;;15.47;100.00
4576;BME280;2300;51.874;8.430;2023-08-24T03:43:43;100906.28;;;15.53;100.00
4576;BME280;2300;51.874;8.430;2023-08-24T03:46:09;100908.16;;;15.47;100.00
4576;BME280;2300;51.874;8.430;2023-08-24T03:48:36;100911.19;;;15.45;100.00
4576;BME280;2300;51.874;8.430;2023-08-24T03:51:02;100907.25;;;15.41;100.00
4576;BME280;2300;51.874;8.430;2023-08-24T03:53:29;100904.56;;;15.46;100.00
4576;BME280;2300;51.874;8.430;2023-08-24T03:55:56;100911.75;;;15.47;100.00
4576;BME280;2300;51.874;8.430;2023-08-24T03:58:22;100903.47;;;15.47;100.00
4576;BME280;2300;51.874;8.430;2023-08-24T04:00:50;100904.91;;;15.55;100.00
4576;BME280;2300;51.874;8.430;2023-08-24T04:03:19;100906.34;;;15.58;100.00
4576;BME280;2300;51.874;8.430;2023-08-24T04:05:45;100902.72;;;15.57;100.00
4576;BME280;2300;51.874;8.430;2023-08-24T04:08:12;100898.53;;;15.55;100.00
4576;BME280;2300;51.874;8.430;2023-08-24T04:10:39;100898.88;;;15.58;100.00
4576;BME280;2300;51.874;8.430;2023-08-24T04:13:05;100898.41;;;15.66;100.00
4576;BME280;2300;51.874;8.430;2023-08-24T04:15:32;100890.38;;;15.65;100.00
4576;BME280;2300;51.874;8.430;2023-08-24T04:18:00;100895.97;;;15.70;100.00
4576;BME280;2300;51.874;8.430;2023-08-24T04:20:26;100906.19;;;15.69;100.00
4576;BME280;2300;51.874;8.430;2023-08-24T04:22:53;100905.34;;;15.69;100.00
4576;BME280;2300;51.874;8.430;2023-08-24T04:25:20;100915.38;;;15.75;100.00
4576;BME280;2300;51.874;8.430;2023-08-24T04:27:47;100910.41;;;15.77;100.00
4576;BME280;2300;51.874;8.430;2023-08-24T04:30:13;100909.91;;;15.80;100.00
4576;BME280;2300;51.874;8.430;2023-08-24T04:32:40;100901.38;;;15.86;100.00
4576;BME280;2300;51.874;8.430;2023-08-24T04:35:08;100907.22;;;15.90;100.00
4576;BME280;2300;51.874;8.430;2023-08-24T04:37:35;100913.31;;;15.92;100.00
4576;BME280;2300;51.874;8.430;2023-08-24T04:40:03;100920.59;;;15.98;100.00
4576;BME280;2300;51.874;8.430;2023-08-24T04:42:30;100925.91;;;16.05;100.00
4576;BME280;2300;51.874;8.430;2023-08-24T04:44:56;100934.59;;;16.13;100.00
4576;BME280;2300;51.874;8.430;2023-08-24T04:47:23;100936.94;;;16.26;100.00
4576;BME280;2300;51.874;8.430;2023-08-24T04:49:49;100931.41;;;16.26;100.00
4576;BME280;2300;51.874;8.430;2023-08-24T04:52:17;100924.53;;;16.34;100.00
4576;BME280;2300;51.874;8.430;2023-08-24T04:54:44;100939.25;;;16.40;100.00
4576;BME280;2300;51.874;8.430;2023-08-24T04:57:10;100943.75;;;16.46;100.00
4576;BME280;2300;51.874;8.430;2023-08-24T04:59:36;100955.72;;;16.51;100.00
4576;BME280;2300;51.874;8.430;2023-08-24T05:02:03;100952.44;;;16.59;100.00
4576;BME280;2300;51.874;8.430;2023-08-24T05:04:30;100941.13;;;16.66;100.00
4576;BME280;2300;51.874;8.430;2023-08-24T05:06:56;100941.66;;;16.63;100.00
4576;BME280;2300;51.874;8.430;2023-08-24T05:09:24;100932.19;;;16.59;100.00
4576;BME280;2300;51.874;8.430;2023-08-24T05:11:50;100940.03;;;16.67;100.00
4576;BME280;2300;51.874;8.430;2023-08-24T05:14:17;100946.13;;;16.69;100.00
4576;BME280;2300;51.874;8.430;2023-08-24T05:16:44;100945.56;;;16.67;100.00
4576;BME280;2300;51.874;8.430;2023-08-24T05:19:10;100919.47;;;16.58;100.00
4576;BME280;2300;51.874;8.430;2023-08-24T05:21:37;100932.50;;;16.62;100.00
4576;BME280;2300;51.874;8.430;2023-08-24T05:24:03;100935.81;;;16.59;100.00
4576;BME280;2300;51.874;8.430;2023-08-24T05:26:31;100935.00;;;16.64;100.00
4576;BME280;2300;51.874;8.430;2023-08-24T05:28:58;100932.50;;;16.62;100.00
4576;BME280;2300;51.874;8.430;2023-08-24T05:31:25;100929.38;;;16.54;100.00
4576;BME280;2300;51.874;8.430;2023-08-24T05:33:51;100907.47;;;16.47;100.00
4576;BME280;2300;51.874;8.430;2023-08-24T05:36:18;100910.50;;;16.46;100.00
4576;BME280;2300;51.874;8.430;2023-08-24T05:38:44;100906.63;;;16.47;100.00
4576;BME280;2300;51.874;8.430;2023-08-24T05:41:12;100898.81;;;16.44;100.00
4576;BME280;2300;51.874;8.430;2023-08-24T05:43:40;100899.03;;;16.32;100.00
4576;BME280;2300;51.874;8.430;2023-08-24T05:46:07;100894.06;;;16.34;100.00
4576;BME280;2300;51.874;8.430;2023-08-24T05:48:33;100887.13;;;16.31;100.00
4576;BME280;2300;51.874;8.430;2023-08-24T05:51:00;100858.72;;;16.14;100.00
4576;BME280;2300;51.874;8.430;2023-08-24T05:53:27;100877.59;;;16.22;100.00
4576;BME280;2300;51.874;8.430;2023-08-24T05:55:57;100888.06;;;16.10;100.00
4576;BME280;2300;51.874;8.430;2023-08-24T05:58:24;100883.91;;;16.13;100.00
4576;BME280;2300;51.874;8.430;2023-08-24T06:00:57;100879.25;;;16.18;100.00
4576;BME280;2300;51.874;8.430;2023-08-24T06:03:24;100880.38;;;16.22;100.00
4576;BME280;2300;51.874;8.430;2023-08-24T06:05:51;100872.66;;;16.24;100.00
4576;BME280;2300;51.874;8.430;2023-08-24T06:08:17;100872.97;;;16.33;100.00
4576;BME280;2300;51.874;8.430;2023-08-24T06:10:44;100873.31;;;16.37;100.00
4576;BME280;2300;51.874;8.430;2023-08-24T06:13:10;100869.97;;;16.40;100.00
4576;BME280;2300;51.874;8.430;2023-08-24T06:15:37;100868.88;;;16.41;100.00
4576;BME280;2300;51.874;8.430;2023-08-24T06:18:05;100873.66;;;16.50;100.00
4576;BME280;2300;51.874;8.430;2023-08-24T06:20:32;100869.00;;;16.61;100.00
4576;BME280;2300;51.874;8.430;2023-08-24T06:22:58;100857.91;;;16.56;100.00
4576;BME280;2300;51.874;8.430;2023-08-24T06:25:25;100817.34;;;16.40;100.00
4576;BME280;2300;51.874;8.430;2023-08-24T06:27:52;100845.50;;;16.68;100.00
4576;BME280;2300;51.874;8.430;2023-08-24T06:30:18;100845.00;;;16.82;100.00
4576;BME280;2300;51.874;8.430;2023-08-24T06:32:45;100840.59;;;16.91;100.00
4576;BME280;2300;51.874;8.430;2023-08-24T06:35:13;100844.78;;;16.88;100.00
4576;BME280;2300;51.874;8.430;2023-08-24T06:37:40;100847.34;;;17.05;100.00
4576;BME280;2300;51.874;8.430;2023-08-24T06:40:08;100835.47;;;17.14;100.00
4576;BME280;2300;51.874;8.430;2023-08-24T06:42:34;100845.41;;;17.10;100.00
4576;BME280;2300;51.874;8.430;2023-08-24T06:45:01;100841.56;;;17.16;100.00
4576;BME280;2300;51.874;8.430;2023-08-24T06:47:28;100841.06;;;17.25;100.00
4576;BME280;2300;51.874;8.430;2023-08-24T06:49:54;100836.91;;;17.42;100.00
4576;BME280;2300;51.874;8.430;2023-08-24T06:52:22;100842.50;;;17.63;100.00
4576;BME280;2300;51.874;8.430;2023-08-24T06:54:49;100837.53;;;17.75;100.00
4576;BME280;2300;51.874;8.430;2023-08-24T06:57:18;100830.63;;;17.97;100.00
4576;BME280;2300;51.874;8.430;2023-08-24T06:59:45;100832.25;;;18.14;100.00
4576;BME280;2300;51.874;8.430;2023-08-24T07:02:11;100822.28;;;18.08;100.00
4576;BME280;2300;51.874;8.430;2023-08-24T07:04:38;100806.41;;;17.88;100.00
4576;BME280;2300;51.874;8.430;2023-08-24T07:07:05;100795.59;;;17.71;100.00
4576;BME280;2300;51.874;8.430;2023-08-24T07:09:34;100794.47;;;17.67;100.00
4576;BME280;2300;51.874;8.430;2023-08-24T07:12:01;100797.28;;;17.87;100.00
4576;BME280;2300;51.874;8.430;2023-08-24T07:14:28;100797.28;;;18.02;100.00
4576;BME280;2300;51.874;8.430;2023-08-24T07:16:54;100774.50;;;18.06;100.00
4576;BME280;2300;51.874;8.430;2023-08-24T07:19:21;100788.75;;;18.78;100.00
4576;BME280;2300;51.874;8.430;2023-08-24T07:21:48;100792.84;;;19.45;100.00
4576;BME280;2300;51.874;8.430;2023-08-24T07:24:14;100771.19;;;19.76;98.24
4576;BME280;2300;51.874;8.430;2023-08-24T07:26:43;100787.91;;;20.63;95.38
4576;BME280;2300;51.874;8.430;2023-08-24T07:29:10;100776.03;;;21.18;91.18
4576;BME280;2300;51.874;8.430;2023-08-24T07:31:37;100786.97;;;21.52;86.30
4576;BME280;2300;51.874;8.430;2023-08-24T07:34:04;100787.22;;;21.88;85.93
4576;BME280;2300;51.874;8.430;2023-08-24T07:36:30;100781.19;;;22.00;83.80
4576;BME280;2300;51.874;8.430;2023-08-24T07:38:57;100772.94;;;22.08;84.63
4576;BME280;2300;51.874;8.430;2023-08-24T07:41:24;100769.84;;;22.23;83.04
4576;BME280;2300;51.874;8.430;2023-08-24T07:43:52;100768.31;;;22.45;83.60
4576;BME280;2300;51.874;8.430;2023-08-24T07:46:19;100779.44;;;22.77;82.87
4576;BME280;2300;51.874;8.430;2023-08-24T07:48:46;100775.50;;;22.92;79.23
4576;BME280;2300;51.874;8.430;2023-08-24T07:51:12;100782.34;;;22.99;80.39
4576;BME280;2300;51.874;8.430;2023-08-24T07:53:39;100779.66;;;22.94;79.47
4576;BME280;2300;51.874;8.430;2023-08-24T07:56:05;100779.66;;;22.81;77.89
4576;BME280;2300;51.874;8.430;2023-08-24T07:58:32;100779.34;;;22.82;79.65
4576;BME280;2300;51.874;8.430;2023-08-24T08:01:00;100783.81;;;22.83;79.83
4576;BME280;2300;51.874;8.430;2023-08-24T08:03:27;100787.81;;;23.04;78.04
4576;BME280;2300;51.874;8.430;2023-08-24T08:05:55;100798.28;;;23.62;78.18
4576;BME280;2300;51.874;8.430;2023-08-24T08:08:22;100796.88;;;23.96;76.19
4576;BME280;2300;51.874;8.430;2023-08-24T08:10:57;100797.53;;;23.93;74.97
4576;BME280;2300;51.874;8.430;2023-08-24T08:13:24;100795.19;;;24.08;76.01
4576;BME280;2300;51.874;8.430;2023-08-24T08:15:50;100789.25;;;24.10;74.29
4576;BME280;2300;51.874;8.430;2023-08-24T08:18:18;100786.94;;;24.34;76.43
4576;BME280;2300;51.874;8.430;2023-08-24T08:20:45;100796.84;;;24.71;75.98
4576;BME280;2300;51.874;8.430;2023-08-24T08:23:12;100789.53;;;25.01;73.33
4576;BME280;2300;51.874;8.430;2023-08-24T08:25:39;100791.03;;;25.15;72.23
4576;BME280;2300;51.874;8.430;2023-08-24T08:28:07;100788.56;;;25.31;72.20
4576;BME280;2300;51.874;8.430;2023-08-24T08:30:34;100774.84;;;25.21;72.83
4576;BME280;2300;51.874;8.430;2023-08-24T08:33:00;100776.34;;;25.27;74.28
4576;BME280;2300;51.874;8.430;2023-08-24T08:35:28;100780.69;;;25.50;70.90
4576;BME280;2300;51.874;8.430;2023-08-24T08:37:55;100779.38;;;25.48;72.40
4576;BME280;2300;51.874;8.430;2023-08-24T08:40:24;100782.16;;;25.74;72.00
4576;BME280;2300;51.874;8.430;2023-08-24T08:42:55;100791.41;;;25.91;70.98
4576;BME280;2300;51.874;8.430;2023-08-24T08:45:24;100783.44;;;26.19;71.01
4576;BME280;2300;51.874;8.430;2023-08-24T08:47:53;100757.25;;;26.27;68.80
4576;BME280;2300;51.874;8.430;2023-08-24T08:50:22;100774.47;;;26.34;69.08
4576;BME280;2300;51.874;8.430;2023-08-24T08:52:50;100770.47;;;26.35;69.39
4576;BME280;2300;51.874;8.430;2023-08-24T08:55:17;100767.66;;;26.35;67.81
4576;BME280;2300;51.874;8.430;2023-08-24T08:57:47;100763.97;;;26.52;67.29
4576;BME280;2300;51.874;8.430;2023-08-24T09:00:15;100763.75;;;26.66;67.82
4576;BME280;2300;51.874;8.430;2023-08-24T09:02:44;100751.19;;;26.93;67.26
4576;BME280;2300;51.874;8.430;2023-08-24T09:05:11;100750.97;;;27.27;66.43
4576;BME280;2300;51.874;8.430;2023-08-24T09:07:39;100743.66;;;26.76;66.82
4576;BME280;2300;51.874;8.430;2023-08-24T09:10:07;100729.28;;;26.69;65.43
4576;BME280;2300;51.874;8.430;2023-08-24T09:12:34;100728.50;;;26.68;66.46
4576;BME280;2300;51.874;8.430;2023-08-24T09:15:03;100718.41;;;26.88;68.08
4576;BME280;2300;51.874;8.430;2023-08-24T09:17:31;100717.25;;;26.89;66.70
4576;BME280;2300;51.874;8.430;2023-08-24T09:19:59;100704.78;;;27.19;66.48
4576;BME280;2300;51.874;8.430;2023-08-24T09:22:26;100708.47;;;27.53;66.49
4576;BME280;2300;51.874;8.430;2023-08-24T09:24:52;100699.41;;;27.47;63.64
4576;BME280;2300;51.874;8.430;2023-08-24T09:27:21;100683.50;;;27.31;62.57
4576;BME280;2300;51.874;8.430;2023-08-24T09:29:48;100694.66;;;27.60;62.07
4576;BME280;2300;51.874;8.430;2023-08-24T09:32:21;100692.94;;;27.47;64.01
4576;BME280;2300;51.874;8.430;2023-08-24T09:34:48;100691.78;;;27.81;63.51
4576;BME280;2300;51.874;8.430;2023-08-24T09:37:15;100675.53;;;27.65;59.83
4576;BME280;2300;51.874;8.430;2023-08-24T09:39:42;100691.63;;;27.98;61.77
4576;BME280;2300;51.874;8.430;2023-08-24T09:42:09;100692.22;;;28.16;60.50
4576;BME280;2300;51.874;8.430;2023-08-24T09:44:37;100692.91;;;28.00;58.58
4576;BME280;2300;51.874;8.430;2023-08-24T09:47:09;100691.81;;;27.60;60.77
4576;BME280;2300;51.874;8.430;2023-08-24T09:49:36;100692.03;;;27.55;62.85
4576;BME280;2300;51.874;8.430;2023-08-24T09:52:06;100687.41;;;27.71;61.36
4576;BME280;2300;51.874;8.430;2023-08-24T09:54:37;100683.03;;;27.94;57.00
4576;BME280;2300;51.874;8.430;2023-08-24T09:57:06;100686.56;;;27.91;59.26
4576;BME280;2300;51.874;8.430;2023-08-24T09:59:34;100676.47;;;28.15;59.42
4576;BME280;2300;51.874;8.430;2023-08-24T10:02:03;100672.28;;;28.45;58.27
4576;BME280;2300;51.874;8.430;2023-08-24T10:04:34;100671.22;;;28.62;57.59
4576;BME280;2300;51.874;8.430;2023-08-24T10:07:05;100658.34;;;28.88;60.08
4576;BME280;2300;51.874;8.430;2023-08-24T10:09:38;100655.97;;;29.03;56.57
4576;BME280;2300;51.874;8.430;2023-08-24T10:12:07;100646.81;;;28.81;58.15
4576;BME280;2300;51.874;8.430;2023-08-24T10:14:39;100631.91;;;28.69;59.02
4576;BME280;2300;51.874;8.430;2023-08-24T10:17:09;100622.03;;;28.63;59.23
4576;BME280;2300;51.874;8.430;2023-08-24T10:19:37;100625.53;;;28.84;59.76
4576;BME280;2300;51.874;8.430;2023-08-24T10:22:05;100599.09;;;28.52;59.80
4576;BME280;2300;51.874;8.430;2023-08-24T10:24:33;100613.91;;;28.37;58.08
4576;BME280;2300;51.874;8.430;2023-08-24T10:27:02;100611.81;;;28.46;61.61
4576;BME280;2300;51.874;8.430;2023-08-24T10:29:29;100619.72;;;28.92;59.69
4576;BME280;2300;51.874;8.430;2023-08-24T10:31:56;100611.97;;;29.02;58.37
4576;BME280;2300;51.874;8.430;2023-08-24T10:34:25;100622.84;;;28.63;60.39
4576;BME280;2300;51.874;8.430;2023-08-24T10:36:51;100624.44;;;28.88;59.63
4576;BME280;2300;51.874;8.430;2023-08-24T10:39:26;100618.81;;;29.01;60.73
4576;BME280;2300;51.874;8.430;2023-08-24T10:41:53;100621.97;;;28.87;59.54
4576;BME280;2300;51.874;8.430;2023-08-24T10:44:22;100620.28;;;28.46;59.08
4576;BME280;2300;51.874;8.430;2023-08-24T10:47:11;100602.13;;;28.35;59.63
4576;BME280;2300;51.874;8.430;2023-08-24T10:49:40;100624.38;;;28.73;61.49
4576;BME280;2300;51.874;8.430;2023-08-24T10:52:17;100633.91;;;28.80;60.68
4576;BME280;2300;51.874;8.430;2023-08-24T10:54:45;100620.44;;;28.89;57.93
4576;BME280;2300;51.874;8.430;2023-08-24T10:57:17;100603.94;;;28.91;60.34
4576;BME280;2300;51.874;8.430;2023-08-24T10:59:44;100627.91;;;29.22;61.44
4576;BME280;2300;51.874;8.430;2023-08-24T11:02:18;100615.13;;;29.28;56.61
4576;BME280;2300;51.874;8.430;2023-08-24T11:05:05;100602.03;;;29.08;57.07
4576;BME280;2300;51.874;8.430;2023-08-24T11:07:32;100604.53;;;28.97;59.75
4576;BME280;2300;51.874;8.430;2023-08-24T11:09:58;100593.78;;;29.15;59.64
4576;BME280;2300;51.874;8.430;2023-08-24T11:12:25;100593.78;;;29.43;58.52
4576;BME280;2300;51.874;8.430;2023-08-24T11:14:53;100581.13;;;29.52;55.35
4576;BME280;2300;51.874;8.430;2023-08-24T11:17:24;100576.25;;;29.37;56.15
4576;BME280;2300;51.874;8.430;2023-08-24T11:19:52;100573.28;;;29.33;56.94
4576;BME280;2300;51.874;8.430;2023-08-24T11:22:20;100569.09;;;29.55;59.17
4576;BME280;2300;51.874;8.430;2023-08-24T11:24:47;100571.75;;;29.80;58.11
4576;BME280;2300;51.874;8.430;2023-08-24T11:27:14;100570.56;;;29.81;56.02
4576;BME280;2300;51.874;8.430;2023-08-24T11:29:41;100558.97;;;29.70;55.23
4576;BME280;2300;51.874;8.430;2023-08-24T11:32:08;100550.59;;;29.58;53.86
4576;BME280;2300;51.874;8.430;2023-08-24T11:34:35;100552.47;;;29.69;56.22
4576;BME280;2300;51.874;8.430;2023-08-24T11:37:02;100543.28;;;29.57;57.14
4576;BME280;2300;51.874;8.430;2023-08-24T11:39:30;100542.22;;;29.49;55.24
4576;BME280;2300;51.874;8.430;2023-08-24T11:41:59;100533.56;;;29.42;58.28
4576;BME280;2300;51.874;8.430;2023-08-24T11:44:26;100524.75;;;29.59;56.23
4576;BME280;2300;51.874;8.430;2023-08-24T11:46:53;100518.28;;;29.59;56.87
4576;BME280;2300;51.874;8.430;2023-08-24T11:49:22;100514.91;;;29.85;58.75
4576;BME280;2300;51.874;8.430;2023-08-24T11:51:48;100507.78;;;29.75;57.83
4576;BME280;2300;51.874;8.430;2023-08-24T11:54:16;100509.78;;;29.74;56.48
4576;BME280;2300;51.874;8.430;2023-08-24T11:56:44;100503.75;;;29.76;58.00
4576;BME280;2300;51.874;8.430;2023-08-24T11:59:12;100490.97;;;29.82;54.65
4576;BME280;2300;51.874;8.430;2023-08-24T12:01:39;100501.22;;;29.55;54.63
4576;BME280;2300;51.874;8.430;2023-08-24T12:04:07;100495.88;;;30.01;55.80
4576;BME280;2300;51.874;8.430;2023-08-24T12:06:34;100481.63;;;30.13;58.21
4576;BME280;2300;51.874;8.430;2023-08-24T12:09:04;100494.06;;;30.08;56.07
4576;BME280;2300;51.874;8.430;2023-08-24T12:11:35;100484.75;;;30.08;56.53
4576;BME280;2300;51.874;8.430;2023-08-24T12:14:03;100490.41;;;30.08;56.23
4576;BME280;2300;51.874;8.430;2023-08-24T12:16:32;100483.53;;;30.25;56.57
4576;BME280;2300;51.874;8.430;2023-08-24T12:19:00;100485.84;;;30.38;57.79
4576;BME280;2300;51.874;8.430;2023-08-24T12:21:29;100479.28;;;30.15;56.73
4576;BME280;2300;51.874;8.430;2023-08-24T12:23:57;100474.25;;;30.08;56.55
4576;BME280;2300;51.874;8.430;2023-08-24T12:26:25;100471.44;;;29.93;55.37
4576;BME280;2300;51.874;8.430;2023-08-24T12:28:52;100452.47;;;29.46;58.10
4576;BME280;2300;51.874;8.430;2023-08-24T12:31:20;100456.06;;;29.59;56.38
4576;BME280;2300;51.874;8.430;2023-08-24T12:33:59;100469.56;;;29.65;57.23
4576;BME280;2300;51.874;8.430;2023-08-24T12:36:26;100461.63;;;29.55;59.48
4576;BME280;2300;51.874;8.430;2023-08-24T12:38:53;100461.97;;;29.69;60.29
4576;BME280;2300;51.874;8.430;2023-08-24T12:41:19;100463.50;;;29.98;60.18
4576;BME280;2300;51.874;8.430;2023-08-24T12:43:46;100472.69;;;30.11;57.69
4576;BME280;2300;51.874;8.430;2023-08-24T12:46:12;100458.09;;;30.09;58.41
4576;BME280;2300;51.874;8.430;2023-08-24T12:48:40;100453.88;;;30.19;58.52
4576;BME280;2300;51.874;8.430;2023-08-24T12:51:07;100444.72;;;30.25;59.30
4576;BME280;2300;51.874;8.430;2023-08-24T12:53:33;100458.41;;;30.23;59.27
4576;BME280;2300;51.874;8.430;2023-08-24T12:56:00;100457.22;;;30.24;57.64
4576;BME280;2300;51.874;8.430;2023-08-24T12:58:26;100460.78;;;30.21;56.62
4576;BME280;2300;51.874;8.430;2023-08-24T13:00:53;100456.13;;;30.29;57.06
4576;BME280;2300;51.874;8.430;2023-08-24T13:03:20;100459.78;;;30.48;58.77
4576;BME280;2300;51.874;8.430;2023-08-24T13:05:48;100439.19;;;30.67;56.70
4576;BME280;2300;51.874;8.430;2023-08-24T13:08:14;100432.34;;;30.52;56.20